Time;durP1;ratioP1;P1;durP2;ratioP2;P2;SDS_P1;SDS_P2;PMS_P1;PMS_P2;Temp;Humidity;BMP_temperature;BMP_pressure;BME280_temperature;BME280_humidity;BME280_pressure;Samples;Min_cycle;Max_cycle;Signal;HPM_P1;HPM_P2
2023/04/19 00:02:01;;;;;;;16.45;12.30;;;;;;;9.79;100.00;-18291.53;4982925;28;20629;-80
2023/04/19 00:04:27;;;;;;;17.33;12.57;;;;;;;9.80;100.00;-18291.94;4983468;28;20505;-80
2023/04/19 00:06:52;;;;;;;18.27;11.82;;;;;;;9.76;100.00;-18290.69;4980776;28;20038;-80
2023/04/19 00:09:18;;;;;;;16.27;11.70;;;;;;;9.79;100.00;-18291.53;4981564;28;20540;-79
2023/04/19 00:11:43;;;;;;;17.13;12.32;;;;;;;9.76;100.00;-18290.69;4982351;28;20058;-79
2023/04/19 00:14:08;;;;;;;16.85;12.00;;;;;;;9.70;100.00;-18289.31;4982461;28;20460;-80
2023/04/19 00:16:34;;;;;;;17.02;13.27;;;;;;;9.70;100.00;-18289.19;4981339;28;21109;-79
2023/04/19 00:19:00;;;;;;;16.85;13.43;;;;;;;9.63;100.00;-18287.25;4980842;28;20085;-80
2023/04/19 00:21:26;;;;;;;16.80;11.82;;;;;;;9.67;100.00;-18288.38;4980746;28;20042;-80
2023/04/19 00:23:52;;;;;;;16.95;12.45;;;;;;;9.68;100.00;-18288.63;4981583;28;20050;-82
2023/04/19 00:26:18;;;;;;;16.73;12.48;;;;;;;9.66;100.00;-18288.09;4982612;28;20042;-80
2023/04/19 00:28:44;;;;;;;17.05;12.63;;;;;;;9.59;100.00;-18286.31;4981589;28;20038;-80
2023/04/19 00:31:09;;;;;;;16.95;13.05;;;;;;;9.62;100.00;-18287.13;4981920;28;20524;-80
2023/04/19 00:33:35;;;;;;;16.77;11.85;;;;;;;9.69;100.00;-18289.06;4983813;28;20042;-81
2023/04/19 00:36:00;;;;;;;18.13;11.85;;;;;;;9.71;100.00;-18289.59;4982201;28;20042;-80
2023/04/19 00:38:26;;;;;;;15.57;12.18;;;;;;;9.64;100.00;-18287.69;4981232;28;20073;-80
2023/04/19 00:40:51;;;;;;;15.93;11.80;;;;;;;9.59;100.00;-18286.16;4981189;28;20042;-78
2023/04/19 00:43:17;;;;;;;16.55;11.90;;;;;;;9.58;100.00;-18286.03;4981628;28;20065;-80
2023/04/19 00:45:43;;;;;;;17.33;11.82;;;;;;;9.58;100.00;-18285.88;4981350;28;20494;-78
2023/04/19 00:48:08;;;;;;;17.73;12.27;;;;;;;9.59;100.00;-18286.16;4983318;28;20046;-78
2023/04/19 00:50:34;;;;;;;17.73;11.88;;;;;;;9.51;100.00;-18284.09;4980736;28;20042;-78
2023/04/19 00:53:01;;;;;;;17.02;11.65;;;;;;;9.52;100.00;-18284.38;4982524;28;20038;-81
2023/04/19 00:55:26;;;;;;;16.67;11.00;;;;;;;9.50;100.00;-18283.81;4982870;28;20884;-79
2023/04/19 00:57:53;;;;;;;17.00;11.77;;;;;;;9.48;100.00;-18283.28;4981855;28;20054;-79
2023/04/19 01:00:18;;;;;;;16.45;11.15;;;;;;;9.42;100.00;-18281.63;4982863;28;20053;-79
2023/04/19 01:02:44;;;;;;;14.25;10.43;;;;;;;9.40;100.00;-18281.22;4981752;28;20042;-81
2023/04/19 01:05:10;;;;;;;14.77;11.20;;;;;;;9.38;100.00;-18280.53;4982544;28;20038;-80
2023/04/19 01:07:35;;;;;;;15.80;11.25;;;;;;;9.31;100.00;-18278.75;4996592;28;20213;-80
2023/04/19 01:10:00;;;;;;;17.13;11.45;;;;;;;9.22;100.00;-18276.41;4971180;28;20050;-80
2023/04/19 01:12:26;;;;;;;16.45;11.48;;;;;;;9.17;100.00;-18275.03;4977459;28;20082;-78
2023/04/19 01:14:51;;;;;;;13.85;10.13;;;;;;;9.18;100.00;-18275.31;4982819;28;20050;-80
2023/04/19 01:17:18;;;;;;;17.35;12.38;;;;;;;9.08;100.00;-18272.53;4981297;28;20742;-79
2023/04/19 01:19:44;;;;;;;16.13;11.55;;;;;;;9.07;100.00;-18272.28;4982010;28;20054;-80
2023/04/19 01:22:15;;;;;;;16.23;11.10;;;;;;;9.02;100.00;-18271.03;4982539;28;20130;-80
2023/04/19 01:24:41;;;;;;;16.25;11.02;;;;;;;9.04;100.00;-18271.44;4980714;28;20134;-81
2023/04/19 01:27:06;;;;;;;14.20;10.30;;;;;;;9.04;100.00;-18271.44;4981979;28;20177;-80
2023/04/19 01:29:32;;;;;;;15.60;10.48;;;;;;;9.01;100.00;-18270.63;4980486;28;20085;-80
2023/04/19 01:31:57;;;;;;;14.40;10.70;;;;;;;8.95;100.00;-18268.97;4981304;28;20046;-80
2023/04/19 01:34:22;;;;;;;13.25;9.80;;;;;;;9.06;100.00;-18271.84;4983231;28;20038;-79
2023/04/19 01:36:48;;;;;;;12.70;9.60;;;;;;;9.03;100.00;-18271.16;4980532;28;20039;-79
2023/04/19 01:39:13;;;;;;;13.68;10.18;;;;;;;9.04;100.00;-18271.44;4981698;28;20060;-81
2023/04/19 01:41:39;;;;;;;12.95;9.20;;;;;;;9.03;100.00;-18271.31;4980991;28;20054;-80
2023/04/19 01:44:04;;;;;;;12.13;9.90;;;;;;;9.12;100.00;-18273.50;4982800;28;21326;-78
2023/04/19 01:46:29;;;;;;;14.75;9.25;;;;;;;9.17;100.00;-18275.03;4982913;28;20381;-80
2023/04/19 01:48:55;;;;;;;12.85;9.10;;;;;;;9.22;100.00;-18276.41;4979873;28;20441;-80
2023/04/19 01:51:20;;;;;;;13.27;9.00;;;;;;;9.33;100.00;-18279.28;4981501;28;20125;-79
2023/04/19 01:53:51;;;;;;;12.75;8.77;;;;;;;9.30;100.00;-18278.47;4984508;28;20069;-80
2023/04/19 01:56:16;;;;;;;12.13;8.98;;;;;;;9.31;100.00;-18278.75;4986314;28;20057;-80
2023/04/19 01:58:42;;;;;;;12.57;8.40;;;;;;;9.35;100.00;-18279.84;5000564;28;20038;-80
2023/04/19 02:01:11;;;;;;;13.70;8.73;;;;;;;9.40;100.00;-18281.06;4990791;28;20102;-81
2023/04/19 02:03:36;;;;;;;13.95;7.93;;;;;;;9.38;100.00;-18280.66;4990258;28;20037;-80
2023/04/19 02:06:02;;;;;;;11.60;8.70;;;;;;;9.42;100.00;-18281.63;4989866;28;20473;-81
2023/04/19 02:08:27;;;;;;;12.00;8.38;;;;;;;9.43;100.00;-18281.91;4990159;28;20042;-80
2023/04/19 02:10:53;;;;;;;11.15;8.38;;;;;;;9.40;100.00;-18281.06;4989647;28;20042;-79
2023/04/19 02:13:18;;;;;;;10.98;7.82;;;;;;;9.42;100.00;-18281.63;4990847;28;20490;-79
2023/04/19 02:15:43;;;;;;;10.32;8.15;;;;;;;9.39;100.00;-18280.94;4989370;28;20114;-80
2023/04/19 02:18:10;;;;;;;11.50;7.35;;;;;;;9.47;100.00;-18283.13;4988892;28;20053;-78
2023/04/19 02:20:36;;;;;;;12.40;7.93;;;;;;;9.49;100.00;-18283.69;4988912;28;20762;-80
2023/04/19 02:23:01;;;;;;;10.98;7.50;;;;;;;9.50;100.00;-18283.81;4989259;28;20046;-79
2023/04/19 02:25:26;;;;;;;11.82;7.47;;;;;;;9.40;100.00;-18281.22;4955362;28;20050;-81
2023/04/19 02:27:52;;;;;;;10.63;7.30;;;;;;;9.40;100.00;-18281.22;4953938;28;20078;-82
2023/04/19 02:30:18;;;;;;;11.02;7.43;;;;;;;9.36;100.00;-18279.97;4958227;28;20230;-80
2023/04/19 02:32:43;;;;;;;9.55;7.15;;;;;;;9.34;100.00;-18279.56;4954640;28;20051;-81
2023/04/19 02:35:09;;;;;;;12.05;7.20;;;;;;;9.32;100.00;-18278.88;4957547;28;20046;-81
2023/04/19 02:37:34;;;;;;;11.43;8.43;;;;;;;9.19;100.00;-18275.56;4957336;28;20039;-80
2023/04/19 02:39:59;;;;;;;12.93;7.97;;;;;;;9.16;100.00;-18274.75;4962841;28;20054;-81
2023/04/19 02:42:25;;;;;;;10.15;7.72;;;;;;;9.09;100.00;-18272.69;4955455;28;20059;-81
2023/04/19 02:44:50;;;;;;;10.93;7.70;;;;;;;9.02;100.00;-18270.91;4956982;28;20522;-81
2023/04/19 02:47:15;;;;;;;11.05;7.78;;;;;;;8.95;100.00;-18269.09;4960712;28;20042;-82
2023/04/19 02:49:41;;;;;;;13.15;8.05;;;;;;;8.87;100.00;-18266.78;4959724;28;20035;-80
2023/04/19 02:52:07;;;;;;;13.65;7.45;;;;;;;8.84;100.00;-18266.09;4958243;28;20074;-81
2023/04/19 02:54:33;;;;;;;12.55;7.88;;;;;;;8.75;100.00;-18263.59;4961735;28;20050;-81
2023/04/19 02:56:58;;;;;;;10.05;7.80;;;;;;;8.70;100.00;-18262.38;4971462;28;20046;-81
2023/04/19 02:59:23;;;;;;;10.43;8.35;;;;;;;8.68;100.00;-18261.69;4992675;28;20039;-81
2023/04/19 03:01:49;;;;;;;11.57;8.32;;;;;;;8.61;100.00;-18259.88;4992275;28;20047;-82
2023/04/19 03:04:15;;;;;;;13.80;8.48;;;;;;;8.56;100.00;-18258.50;4991846;28;20048;-82
2023/04/19 03:06:43;;;;;;;11.00;7.25;;;;;;;8.58;100.00;-18259.06;4991939;28;20042;-79
2023/04/19 03:09:11;;;;;;;13.48;7.90;;;;;;;8.52;100.00;-18257.41;4993060;28;20038;-79
2023/04/19 03:11:37;;;;;;;12.57;8.33;;;;;;;8.53;100.00;-18257.81;4992112;28;20069;-79
2023/04/19 03:14:03;;;;;;;11.85;7.78;;;;;;;8.50;100.00;-18256.88;4992648;28;20039;-81
2023/04/19 03:16:29;;;;;;;12.10;8.00;;;;;;;8.50;100.00;-18256.88;4987513;28;20053;-81
2023/04/19 03:18:54;;;;;;;12.38;8.60;;;;;;;8.47;100.00;-18256.03;4988645;28;20085;-80
2023/04/19 03:21:20;;;;;;;10.43;7.85;;;;;;;8.39;100.00;-18253.97;5004464;28;20030;-79
2023/04/19 03:23:45;;;;;;;11.48;8.23;;;;;;;8.40;100.00;-18254.09;4988744;28;20447;-81
2023/04/19 03:26:11;;;;;;;12.95;7.70;;;;;;;8.39;100.00;-18253.84;5004017;28;20451;-80
2023/04/19 03:28:36;;;;;;;12.05;8.63;;;;;;;8.40;100.00;-18254.09;4988862;28;20026;-79
2023/04/19 03:31:01;;;;;;;10.75;7.63;;;;;;;8.41;100.00;-18254.38;4988410;28;20105;-79
2023/04/19 03:33:27;;;;;;;12.57;8.20;;;;;;;8.39;100.00;-18253.84;5002852;28;20066;-80
2023/04/19 03:35:52;;;;;;;10.73;7.57;;;;;;;8.42;100.00;-18254.66;4983469;28;20049;-80
2023/04/19 03:38:17;;;;;;;10.57;7.82;;;;;;;8.49;100.00;-18256.72;4984357;28;20054;-80
2023/04/19 03:40:43;;;;;;;11.15;8.55;;;;;;;8.48;100.00;-18256.31;4984576;28;20050;-81
2023/04/19 03:43:08;;;;;;;12.43;8.10;;;;;;;8.50;100.00;-18256.88;4983593;28;20074;-79
2023/04/19 03:45:33;;;;;;;12.20;7.72;;;;;;;8.56;100.00;-18258.50;4983904;28;20049;-80
2023/04/19 03:47:59;;;;;;;10.60;7.47;;;;;;;8.54;100.00;-18257.97;4982039;28;20066;-80
2023/04/19 03:50:24;;;;;;;11.90;8.18;;;;;;;8.48;100.00;-18256.44;4982831;28;20050;-79
2023/04/19 03:52:49;;;;;;;10.30;7.40;;;;;;;8.52;100.00;-18257.56;4983025;28;20062;-81
2023/04/19 03:55:15;;;;;;;11.15;7.93;;;;;;;8.53;100.00;-18257.69;4983592;28;20034;-79
2023/04/19 03:57:40;;;;;;;10.68;8.23;;;;;;;8.54;100.00;-18257.97;4983125;28;20509;-79
2023/04/19 04:00:07;;;;;;;10.10;6.60;;;;;;;8.55;100.00;-18258.25;4984247;28;20049;-80
2023/04/19 04:02:32;;;;;;;10.45;6.93;;;;;;;8.55;100.00;-18258.38;4984428;28;20042;-81
2023/04/19 04:04:57;;;;;;;9.98;6.80;;;;;;;8.56;100.00;-18258.50;4984438;28;20052;-79
2023/04/19 04:07:23;;;;;;;10.15;6.95;;;;;;;8.63;100.00;-18260.44;4984660;28;20038;-80
2023/04/19 04:09:49;;;;;;;10.00;6.88;;;;;;;8.63;100.00;-18260.31;4980104;28;20049;-81
2023/04/19 04:12:15;;;;;;;9.52;6.22;;;;;;;8.66;100.00;-18261.13;4982728;28;20050;-81
2023/04/19 04:14:40;;;;;;;9.65;6.82;;;;;;;8.63;100.00;-18260.44;4982036;28;20058;-82
2023/04/19 04:17:06;;;;;;;9.25;6.43;;;;;;;8.61;100.00;-18259.88;4982234;28;20086;-80
2023/04/19 04:19:31;;;;;;;11.38;7.30;;;;;;;8.66;100.00;-18261.28;4982709;28;20173;-80
2023/04/19 04:21:56;;;;;;;11.00;6.70;;;;;;;8.67;100.00;-18261.53;4982868;28;20084;-80
2023/04/19 04:24:22;;;;;;;9.77;7.10;;;;;;;8.66;100.00;-18261.13;4983461;28;20046;-82
2023/04/19 04:26:48;;;;;;;10.35;6.25;;;;;;;8.68;100.00;-18261.69;4997507;28;20050;-83
2023/04/19 04:29:14;;;;;;;9.63;7.03;;;;;;;8.66;100.00;-18261.28;4983554;28;20046;-84
2023/04/19 04:31:39;;;;;;;11.90;6.55;;;;;;;8.63;100.00;-18260.31;4978478;28;20070;-80
2023/04/19 04:34:05;;;;;;;9.27;6.20;;;;;;;8.67;100.00;-18261.53;4993907;28;20038;-81
2023/04/19 04:36:30;;;;;;;9.18;6.43;;;;;;;8.61;100.00;-18259.75;4979089;28;20694;-80
2023/04/19 04:38:56;;;;;;;9.15;5.70;;;;;;;8.70;100.00;-18262.38;4982552;28;20045;-81
2023/04/19 04:41:21;;;;;;;8.32;5.90;;;;;;;8.65;100.00;-18261.00;4980199;28;20038;-79
2023/04/19 04:43:50;;;;;;;9.35;5.97;;;;;;;8.61;100.00;-18259.88;4979527;28;20057;-82
2023/04/19 04:46:15;;;;;;;7.73;4.80;;;;;;;8.68;100.00;-18261.81;4981201;28;20633;-83
2023/04/19 04:48:41;;;;;;;8.02;5.43;;;;;;;8.65;100.00;-18260.84;4978127;28;20090;-82
2023/04/19 04:51:06;;;;;;;7.30;5.40;;;;;;;8.64;100.00;-18260.72;4980802;28;20061;-83
2023/04/19 04:53:31;;;;;;;12.35;5.72;;;;;;;8.64;100.00;-18260.72;4980718;28;20054;-82
2023/04/19 04:55:57;;;;;;;8.32;5.03;;;;;;;8.56;100.00;-18258.50;4976712;28;20506;-80
2023/04/19 04:58:22;;;;;;;7.85;4.70;;;;;;;8.61;100.00;-18259.88;4996059;28;20042;-82
2023/04/19 05:00:48;;;;;;;6.95;4.53;;;;;;;8.61;100.00;-18259.88;4979521;28;20041;-83
2023/04/19 05:03:14;;;;;;;9.85;4.95;;;;;;;8.59;100.00;-18259.47;4980249;28;20094;-84
2023/04/19 05:05:39;;;;;;;8.00;5.10;;;;;;;8.56;100.00;-18258.50;4978687;28;20054;-83
2023/04/19 05:08:05;;;;;;;7.65;4.57;;;;;;;8.57;100.00;-18258.78;4978029;28;20057;-79
2023/04/19 05:10:30;;;;;;;7.18;4.55;;;;;;;8.52;100.00;-18257.41;4979979;28;20038;-82
2023/04/19 05:12:55;;;;;;;7.13;4.20;;;;;;;8.55;100.00;-18258.25;4980450;28;20605;-82
2023/04/19 05:15:21;;;;;;;7.72;4.53;;;;;;;8.53;100.00;-18257.69;4976908;28;20058;-83
2023/04/19 05:17:46;;;;;;;9.90;4.20;;;;;;;8.50;100.00;-18257.00;4978404;28;20089;-79
2023/04/19 05:20:12;;;;;;;9.68;4.65;;;;;;;8.49;100.00;-18256.59;4979807;28;20548;-84
2023/04/19 05:22:38;;;;;;;6.10;4.30;;;;;;;8.47;100.00;-18256.03;4994693;28;20133;-83
2023/04/19 05:25:04;;;;;;;7.10;4.60;;;;;;;8.51;100.00;-18257.28;4978241;28;20042;-83
2023/04/19 05:27:30;;;;;;;7.25;4.25;;;;;;;8.48;100.00;-18256.44;4980898;28;20053;-83
2023/04/19 05:29:55;;;;;;;7.38;4.55;;;;;;;8.54;100.00;-18257.97;4978318;28;20050;-81
2023/04/19 05:32:20;;;;;;;7.40;4.35;;;;;;;8.46;100.00;-18255.75;4980232;28;20208;-83
2023/04/19 05:34:46;;;;;;;8.27;4.50;;;;;;;8.43;100.00;-18255.06;4983668;28;20050;-80
2023/04/19 05:37:11;;;;;;;7.05;4.22;;;;;;;8.43;100.00;-18254.94;4984505;28;20397;-82
2023/04/19 05:39:36;;;;;;;5.70;3.80;;;;;;;8.39;100.00;-18253.97;4981556;28;20490;-84
2023/04/19 05:42:02;;;;;;;5.50;3.97;;;;;;;8.27;100.00;-18250.78;4982858;28;20101;-82
2023/04/19 05:44:27;;;;;;;9.43;3.92;;;;;;;8.27;100.00;-18250.78;4982891;28;20049;-82
2023/04/19 05:46:53;;;;;;;7.55;4.10;;;;;;;8.20;100.00;-18248.72;4982867;28;20046;-82
2023/04/19 05:49:18;;;;;;;5.75;3.63;;;;;;;8.22;100.00;-18249.28;4982327;28;20397;-83
2023/04/19 05:51:43;;;;;;;6.55;4.00;;;;;;;8.18;100.00;-18248.31;4980579;28;20414;-81
2023/04/19 05:54:11;;;;;;;7.47;4.10;;;;;;;8.08;100.00;-18245.56;4983421;28;20125;-82
2023/04/19 05:56:37;;;;;;;7.95;3.92;;;;;;;8.09;100.00;-18245.84;4981522;28;20054;-83
2023/04/19 05:59:02;;;;;;;7.55;3.40;;;;;;;8.05;100.00;-18244.88;4983609;28;20054;-79
2023/04/19 06:01:28;;;;;;;7.80;4.22;;;;;;;8.02;100.00;-18243.91;4982564;28;20046;-81
2023/04/19 06:03:53;;;;;;;7.93;3.75;;;;;;;8.00;100.00;-18243.38;4981426;28;20054;-82
2023/04/19 06:06:21;;;;;;;6.72;3.80;;;;;;;8.01;100.00;-18243.78;4980680;28;20042;-79
2023/04/19 06:08:46;;;;;;;5.57;3.22;;;;;;;8.01;100.00;-18243.63;4980183;28;20039;-78
2023/04/19 06:11:11;;;;;;;5.97;3.50;;;;;;;8.06;100.00;-18245.16;5001034;28;20038;-79
2023/04/19 06:13:37;;;;;;;8.15;3.85;;;;;;;8.10;100.00;-18246.13;4980477;28;20128;-81
2023/04/19 06:16:02;;;;;;;8.23;3.90;;;;;;;8.09;100.00;-18245.84;4983197;28;20053;-80
2023/04/19 06:18:28;;;;;;;5.88;3.42;;;;;;;8.05;100.00;-18244.75;4986004;28;20486;-84
2023/04/19 06:20:53;;;;;;;6.57;3.65;;;;;;;8.06;100.00;-18245.16;4983530;28;20042;-83
2023/04/19 06:23:19;;;;;;;5.88;3.70;;;;;;;8.03;100.00;-18244.19;4982875;28;20051;-80
2023/04/19 06:25:44;;;;;;;6.85;3.70;;;;;;;8.04;100.00;-18244.59;4983441;28;20101;-83
2023/04/19 06:28:10;;;;;;;5.68;3.60;;;;;;;8.10;100.00;-18246.13;4984638;28;20837;-82
2023/04/19 06:30:35;;;;;;;8.45;3.20;;;;;;;8.08;100.00;-18245.69;4983117;28;20501;-81
2023/04/19 06:33:01;;;;;;;5.47;3.63;;;;;;;8.03;100.00;-18244.31;4996001;28;20138;-83
2023/04/19 06:35:26;;;;;;;5.78;3.78;;;;;;;7.99;100.00;-18243.22;4981890;28;20051;-84
2023/04/19 06:37:51;;;;;;;5.97;3.55;;;;;;;8.02;100.00;-18244.06;4983520;28;20042;-82
2023/04/19 06:40:17;;;;;;;5.53;3.30;;;;;;;8.08;100.00;-18245.69;4982249;28;20050;-79
2023/04/19 06:42:42;;;;;;;5.80;3.00;;;;;;;8.11;100.00;-18246.38;4984180;28;20634;-80
2023/04/19 06:45:08;;;;;;;6.65;3.35;;;;;;;8.11;100.00;-18246.53;4980718;28;20058;-81
2023/04/19 06:47:33;;;;;;;6.47;3.38;;;;;;;8.13;100.00;-18246.94;4983810;28;20757;-81
2023/04/19 06:49:59;;;;;;;6.00;3.45;;;;;;;8.16;100.00;-18247.63;4981888;28;20460;-84
2023/04/19 06:52:25;;;;;;;6.15;3.40;;;;;;;8.16;100.00;-18247.63;4981358;28;20089;-78
2023/04/19 06:54:51;;;;;;;6.28;3.15;;;;;;;8.18;100.00;-18248.31;4983717;28;20064;-84
2023/04/19 06:57:17;;;;;;;5.90;3.65;;;;;;;8.28;100.00;-18251.06;4983070;28;20066;-82
2023/04/19 06:59:43;;;;;;;5.70;3.45;;;;;;;8.26;100.00;-18250.38;4981074;28;20070;-79
2023/04/19 07:02:08;;;;;;;5.43;3.30;;;;;;;8.23;100.00;-18249.56;4982923;28;20435;-82
2023/04/19 07:04:35;;;;;;;5.75;2.88;;;;;;;8.26;100.00;-18250.38;4981842;28;20379;-84
2023/04/19 07:07:01;;;;;;;10.00;3.45;;;;;;;8.28;100.00;-18251.06;4981207;28;20138;-81
2023/04/19 07:09:27;;;;;;;5.63;2.45;;;;;;;8.32;100.00;-18252.19;4986262;28;20166;-83
2023/04/19 07:11:52;;;;;;;7.45;2.58;;;;;;;8.38;100.00;-18253.56;4987142;28;20052;-82
2023/04/19 07:14:20;;;;;;;4.75;2.83;;;;;;;8.38;100.00;-18253.56;5002195;28;20050;-82
2023/04/19 07:16:46;;;;;;;6.05;2.70;;;;;;;8.47;100.00;-18256.03;5002909;28;20046;-80
2023/04/19 07:19:12;;;;;;;5.00;2.75;;;;;;;8.51;100.00;-18257.13;4983834;28;20243;-81
2023/04/19 07:21:38;;;;;;;4.68;2.50;;;;;;;8.53;100.00;-18257.81;4985218;28;20041;-81
2023/04/19 07:24:06;;;;;;;4.10;2.33;;;;;;;8.54;100.00;-18257.97;4986815;28;20038;-81
2023/04/19 07:26:32;;;;;;;4.47;2.38;;;;;;;8.63;100.00;-18260.44;5000678;28;20787;-81
2023/04/19 07:28:59;;;;;;;4.05;2.20;;;;;;;8.71;100.00;-18262.63;4986131;28;20050;-82
2023/04/19 07:31:26;;;;;;;4.53;2.20;;;;;;;8.73;100.00;-18263.19;4984978;28;20042;-82
2023/04/19 07:33:52;;;;;;;5.70;2.38;;;;;;;8.79;100.00;-18264.72;4986326;28;20964;-81
2023/04/19 07:36:17;;;;;;;4.10;2.28;;;;;;;8.94;100.00;-18268.69;4985192;28;20046;-82
2023/04/19 07:38:43;;;;;;;3.75;2.45;;;;;;;8.96;100.00;-18269.25;4984312;28;20042;-82
2023/04/19 07:41:08;;;;;;;3.72;2.30;;;;;;;9.03;100.00;-18271.31;4986475;28;20046;-81
2023/04/19 07:43:36;;;;;;;5.18;2.60;;;;;;;9.09;100.00;-18272.69;4985897;28;20426;-80
2023/04/19 07:46:08;;;;;;;3.10;2.10;;;;;;;9.07;96.23;-18272.28;4985142;28;20077;-81
2023/04/19 07:48:33;;;;;;;4.15;2.30;;;;;;;9.11;100.00;-18273.22;4984442;28;20121;-81
2023/04/19 07:51:19;;;;;;;5.50;2.70;;;;;;;9.16;100.00;-18274.63;4983532;28;20293;-82
2023/04/19 07:53:46;;;;;;;4.80;2.67;;;;;;;9.13;98.71;-18273.94;4985936;28;20100;-81
2023/04/19 07:56:11;;;;;;;3.95;2.10;;;;;;;9.20;98.47;-18275.84;4983675;28;20051;-81
2023/04/19 07:58:38;;;;;;;3.75;2.30;;;;;;;9.30;100.00;-18278.47;4985016;28;20116;-81
2023/04/19 08:01:04;;;;;;;4.90;2.35;;;;;;;9.54;100.00;-18284.78;4982985;28;20125;-81
2023/04/19 08:03:30;;;;;;;5.28;2.30;;;;;;;9.55;100.00;-18285.19;4985445;28;20113;-81
2023/04/19 08:05:56;;;;;;;4.97;2.25;;;;;;;9.64;100.00;-18287.69;4985203;28;20046;-82
2023/04/19 08:08:22;;;;;;;4.72;2.63;;;;;;;9.74;99.46;-18290.16;4980817;28;20072;-81
2023/04/19 08:10:47;;;;;;;3.03;1.80;;;;;;;9.80;100.00;-18291.81;4999537;28;20467;-82
2023/04/19 08:13:13;;;;;;;4.68;2.53;;;;;;;9.74;100.00;-18290.28;4985808;28;20047;-82
2023/04/19 08:15:38;;;;;;;4.03;2.05;;;;;;;9.74;100.00;-18290.16;4985568;28;20106;-81
2023/04/19 08:18:04;;;;;;;4.18;2.20;;;;;;;9.77;98.30;-18291.13;4982519;28;20054;-81
2023/04/19 08:20:31;;;;;;;5.95;1.98;;;;;;;9.83;100.00;-18292.63;4983966;28;20375;-81
2023/04/19 08:22:56;;;;;;;5.50;2.20;;;;;;;9.98;100.00;-18296.75;4985097;28;20041;-81
2023/04/19 08:25:25;;;;;;;3.10;1.90;;;;;;;10.11;98.10;-18300.19;4985739;28;20107;-80
2023/04/19 08:27:51;;;;;;;4.47;2.00;;;;;;;10.11;89.23;-18300.31;4985188;28;20105;-81
2023/04/19 08:30:16;;;;;;;4.30;1.92;;;;;;;10.04;87.58;-18298.25;4983583;28;20624;-82
2023/04/19 08:32:42;;;;;;;4.60;1.92;;;;;;;10.04;89.21;-18298.25;4983765;28;20085;-82
2023/04/19 08:35:07;;;;;;;5.13;2.20;;;;;;;10.27;97.62;-18304.44;4983290;28;20522;-82
2023/04/19 08:37:33;;;;;;;4.18;2.08;;;;;;;10.45;87.94;-18309.25;4984918;28;20042;-82
2023/04/19 08:39:58;;;;;;;3.45;1.90;;;;;;;10.45;85.71;-18309.41;4997707;28;20061;-82
2023/04/19 08:42:23;;;;;;;5.75;2.40;;;;;;;10.43;82.57;-18308.72;5000313;28;20560;-82
2023/04/19 08:44:49;;;;;;;3.30;1.80;;;;;;;10.46;88.07;-18309.53;4981780;28;20066;-82
2023/04/19 08:47:15;;;;;;;3.42;1.80;;;;;;;10.57;83.78;-18312.69;4985482;28;20405;-82
2023/04/19 08:49:41;;;;;;;2.63;1.48;;;;;;;10.64;86.61;-18314.47;4981616;28;20046;-83
2023/04/19 08:52:10;;;;;;;5.22;1.50;;;;;;;10.75;84.90;-18317.38;4983667;28;20062;-80
2023/04/19 08:54:36;;;;;;;4.05;1.65;;;;;;;10.78;85.58;-18318.31;4986375;28;20117;-81
2023/04/19 08:57:02;;;;;;;8.32;1.92;;;;;;;10.92;88.22;-18321.91;4984360;28;20038;-83
2023/04/19 08:59:29;;;;;;;3.45;1.67;;;;;;;11.04;87.71;-18325.34;4981439;28;20049;-83
2023/04/19 09:01:57;;;;;;;2.10;1.38;;;;;;;11.06;80.67;-18325.75;4983999;28;20133;-83
2023/04/19 09:04:24;;;;;;;2.60;1.48;;;;;;;11.17;83.38;-18328.78;4985357;28;20582;-82
2023/04/19 09:06:50;;;;;;;3.33;1.60;;;;;;;11.29;80.87;-18332.06;4981857;28;20046;-81
2023/04/19 09:09:35;;;;;;;2.75;1.45;;;;;;;11.39;76.53;-18334.53;4987195;28;20685;-82
2023/04/19 09:12:01;;;;;;;6.47;2.00;;;;;;;11.27;77.27;-18331.38;4987310;28;20514;-82
2023/04/19 09:14:28;;;;;;;4.22;2.08;;;;;;;11.30;73.45;-18332.34;4989713;28;20042;-83
2023/04/19 09:17:11;;;;;;;4.22;1.85;;;;;;;11.44;72.20;-18335.91;4999388;28;20046;-83
2023/04/19 09:19:48;;;;;;;7.53;2.17;;;;;;;11.63;73.23;-18341.13;4985530;28;20061;-82
2023/04/19 09:22:14;;;;;;;4.13;2.00;;;;;;;11.66;75.80;-18341.94;5000926;28;20042;-83
2023/04/19 09:24:39;;;;;;;4.32;2.10;;;;;;;11.72;63.48;-18343.59;4987215;28;20049;-82
2023/04/19 09:27:05;;;;;;;4.35;1.80;;;;;;;11.80;68.03;-18345.53;4988378;28;20042;-84
2023/04/19 09:29:30;;;;;;;5.93;2.13;;;;;;;11.84;64.75;-18346.75;4988305;28;20049;-82
2023/04/19 09:31:57;;;;;;;5.80;2.38;;;;;;;11.87;61.05;-18347.56;4988914;28;20042;-83
2023/04/19 09:34:23;;;;;;;5.13;2.40;;;;;;;11.86;54.49;-18347.31;4987311;28;20054;-82
2023/04/19 09:36:48;;;;;;;4.35;1.85;;;;;;;11.85;53.90;-18347.03;4988112;28;20050;-82
2023/04/19 09:39:27;;;;;;;5.85;2.67;;;;;;;11.99;50.84;-18350.72;4990276;28;20042;-83
2023/04/19 09:41:53;;;;;;;5.80;2.42;;;;;;;12.07;51.62;-18352.78;4996405;28;20799;-81
2023/04/19 09:44:20;;;;;;;3.60;2.00;;;;;;;12.12;51.68;-18354.31;4993908;28;20052;-82
2023/04/19 09:46:50;;;;;;;3.67;2.22;;;;;;;12.11;48.67;-18353.88;4997569;28;20042;-83
2023/04/19 09:49:23;;;;;;;4.45;2.10;;;;;;;12.11;50.05;-18353.88;4994931;28;20042;-83
2023/04/19 09:51:53;;;;;;;4.32;2.00;;;;;;;12.17;51.41;-18355.69;4987170;28;20145;-83
2023/04/19 09:54:20;;;;;;;3.50;2.20;;;;;;;12.29;51.98;-18358.69;4987552;28;20161;-82
2023/04/19 09:56:45;;;;;;;3.22;2.00;;;;;;;12.37;49.43;-18360.88;4987069;28;20469;-80
2023/04/19 09:59:12;;;;;;;5.00;1.83;;;;;;;12.35;49.68;-18360.34;4986667;28;20121;-81
2023/04/19 10:01:44;;;;;;;6.50;2.25;;;;;;;12.38;46.99;-18361.31;4986436;28;20248;-81
2023/04/19 10:04:12;;;;;;;3.47;2.20;;;;;;;12.54;48.47;-18365.41;4983882;28;20046;-81
2023/04/19 10:06:40;;;;;;;4.78;2.40;;;;;;;12.63;47.50;-18367.88;4986937;28;20050;-80
2023/04/19 10:09:07;;;;;;;3.95;2.05;;;;;;;12.85;47.45;-18373.78;4987175;28;20457;-80
2023/04/19 10:11:39;;;;;;;4.60;2.30;;;;;;;13.02;48.06;-18378.44;4986052;28;20051;-83
2023/04/19 10:14:09;;;;;;;7.93;2.40;;;;;;;13.10;47.15;-18380.63;4982822;28;20051;-81
2023/04/19 10:16:36;;;;;;;5.68;2.28;;;;;;;12.91;45.41;-18375.28;4987338;28;20402;-84
2023/04/19 10:19:04;;;;;;;4.97;1.88;;;;;;;12.96;44.55;-18376.78;4984218;28;20493;-80
2023/04/19 10:21:31;;;;;;;4.18;2.25;;;;;;;12.82;45.78;-18372.97;4979648;28;20050;-81
2023/04/19 10:23:58;;;;;;;5.45;2.25;;;;;;;12.93;46.96;-18375.97;4987622;28;20477;-83
2023/04/19 10:26:23;;;;;;;5.43;2.38;;;;;;;13.00;47.48;-18377.75;4987979;28;20050;-82
2023/04/19 10:28:49;;;;;;;4.13;2.45;;;;;;;13.20;46.63;-18383.22;4983947;28;20100;-81
2023/04/19 10:31:14;;;;;;;2.67;1.83;;;;;;;13.18;43.35;-18382.69;4985369;28;20085;-82
2023/04/19 10:33:41;;;;;;;5.82;2.30;;;;;;;13.14;41.84;-18381.59;4982589;28;20054;-83
2023/04/19 10:36:13;;;;;;;5.13;2.30;;;;;;;13.11;42.60;-18380.78;4982231;28;20049;-84
2023/04/19 10:38:54;;;;;;;4.50;2.40;;;;;;;13.16;44.79;-18382.13;4982859;28;20093;-80
2023/04/19 10:41:20;;;;;;;4.50;2.28;;;;;;;13.26;43.41;-18384.88;5000824;28;20542;-80
2023/04/19 10:44:10;;;;;;;5.22;2.55;;;;;;;13.41;43.47;-18388.72;4984804;28;20046;-81
2023/04/19 10:46:38;;;;;;;4.25;2.30;;;;;;;13.53;43.35;-18392.00;4956353;28;20453;-80
2023/04/19 10:49:04;;;;;;;3.55;2.20;;;;;;;13.53;41.82;-18392.00;4982646;28;20101;-82
2023/04/19 10:51:35;;;;;;;3.67;2.17;;;;;;;13.62;45.14;-18394.47;4997676;28;20050;-80
2023/04/19 10:54:00;;;;;;;3.85;2.67;;;;;;;13.72;42.21;-18397.09;4983994;28;20134;-80
2023/04/19 10:56:32;;;;;;;3.60;2.03;;;;;;;13.68;44.41;-18396.13;4982464;28;20530;-79
2023/04/19 10:59:00;;;;;;;4.50;2.10;;;;;;;13.76;44.55;-18398.31;4982599;28;20050;-83
2023/04/19 11:01:42;;;;;;;5.50;1.90;;;;;;;13.84;43.85;-18400.22;4997620;28;20086;-83
2023/04/19 11:04:11;;;;;;;4.22;2.55;;;;;;;13.97;43.94;-18403.94;4982066;28;20038;-83
2023/04/19 11:06:50;;;;;;;3.90;2.42;;;;;;;13.91;42.32;-18402.16;4997512;28;20070;-82
2023/04/19 11:09:23;;;;;;;3.55;2.58;;;;;;;13.94;45.86;-18402.97;4982308;28;20081;-83
2023/04/19 11:11:48;;;;;;;3.95;2.55;;;;;;;14.04;45.96;-18405.72;4983080;28;20046;-83
2023/04/19 11:14:15;;;;;;;4.68;2.45;;;;;;;14.04;43.82;-18405.56;4983123;28;20038;-81
2023/04/19 11:16:41;;;;;;;5.38;2.03;;;;;;;13.96;45.29;-18403.53;4998763;28;20042;-80
2023/04/19 11:19:06;;;;;;;5.60;2.47;;;;;;;14.09;47.02;-18407.06;4979501;28;20200;-79